sensor_id;sensor_type;location;lat;lon;timestamp;temperature;humidity
22035;DHT22;11181;51.002;4.356;2022-09-09T00:00:19;17.50;99.90
22035;DHT22;11181;51.002;4.356;2022-09-09T00:02:52;17.40;99.90
22035;DHT22;11181;51.002;4.356;2022-09-09T00:05:26;17.40;99.90
22035;DHT22;11181;51.002;4.356;2022-09-09T00:07:59;17.50;99.90
22035;DHT22;11181;51.002;4.356;2022-09-09T00:10:30;17.60;99.90
22035;DHT22;11181;51.002;4.356;2022-09-09T00:13:05;17.70;99.90
22035;DHT22;11181;51.002;4.356;2022-09-09T00:15:38;17.80;99.90
22035;DHT22;11181;51.002;4.356;2022-09-09T00:18:15;17.90;99.90
22035;DHT22;11181;51.002;4.356;2022-09-09T00:20:48;18.00;99.90
22035;DHT22;11181;51.002;4.356;2022-09-09T00:23:24;18.10;99.90
22035;DHT22;11181;51.002;4.356;2022-09-09T00:25:59;18.20;99.90
22035;DHT22;11181;51.002;4.356;2022-09-09T00:28:32;18.20;99.90
22035;DHT22;11181;51.002;4.356;2022-09-09T00:31:07;18.20;99.90
22035;DHT22;11181;51.002;4.356;2022-09-09T00:33:35;18.30;99.90
22035;DHT22;11181;51.002;4.356;2022-09-09T00:36:03;18.30;99.90
22035;DHT22;11181;51.002;4.356;2022-09-09T00:38:36;18.30;99.90
22035;DHT22;11181;51.002;4.356;2022-09-09T00:41:09;18.30;99.90
22035;DHT22;11181;51.002;4.356;2022-09-09T00:43:39;18.40;99.90
22035;DHT22;11181;51.002;4.356;2022-09-09T00:49:19;18.10;99.90
22035;DHT22;11181;51.002;4.356;2022-09-09T00:51:55;18.00;99.90
22035;DHT22;11181;51.002;4.356;2022-09-09T00:54:33;17.90;99.90
22035;DHT22;11181;51.002;4.356;2022-09-09T00:57:15;18.00;99.90
22035;DHT22;11181;51.002;4.356;2022-09-09T00:59:48;18.00;99.90
22035;DHT22;11181;51.002;4.356;2022-09-09T01:02:25;17.90;99.90
22035;DHT22;11181;51.002;4.356;2022-09-09T01:04:53;17.90;99.90
22035;DHT22;11181;51.002;4.356;2022-09-09T01:07:21;17.60;99.90
22035;DHT22;11181;51.002;4.356;2022-09-09T01:09:55;17.60;99.90
22035;DHT22;11181;51.002;4.356;2022-09-09T01:12:35;17.60;99.90
22035;DHT22;11181;51.002;4.356;2022-09-09T01:15:10;17.70;99.90
22035;DHT22;11181;51.002;4.356;2022-09-09T01:17:46;17.60;99.90
22035;DHT22;11181;51.002;4.356;2022-09-09T01:20:18;17.50;99.90
22035;DHT22;11181;51.002;4.356;2022-09-09T01:22:57;17.60;99.90
22035;DHT22;11181;51.002;4.356;2022-09-09T01:26:04;17.60;99.90
22035;DHT22;11181;51.002;4.356;2022-09-09T01:28:36;17.50;99.90
22035;DHT22;11181;51.002;4.356;2022-09-09T01:31:06;17.50;99.90
22035;DHT22;11181;51.002;4.356;2022-09-09T01:33:34;17.40;99.90
22035;DHT22;11181;51.002;4.356;2022-09-09T01:36:05;17.30;99.90
22035;DHT22;11181;51.002;4.356;2022-09-09T01:38:35;17.30;99.90
22035;DHT22;11181;51.002;4.356;2022-09-09T01:41:04;17.30;99.90
22035;DHT22;11181;51.002;4.356;2022-09-09T01:43:31;17.20;99.90
22035;DHT22;11181;51.002;4.356;2022-09-09T01:46:00;17.30;99.90
22035;DHT22;11181;51.002;4.356;2022-09-09T01:48:28;17.40;99.90
22035;DHT22;11181;51.002;4.356;2022-09-09T01:50:55;17.60;99.90
22035;DHT22;11181;51.002;4.356;2022-09-09T01:53:23;17.50;99.90
22035;DHT22;11181;51.002;4.356;2022-09-09T01:55:58;17.60;99.90
22035;DHT22;11181;51.002;4.356;2022-09-09T01:58:34;17.50;99.90
22035;DHT22;11181;51.002;4.356;2022-09-09T02:01:06;17.50;99.90
22035;DHT22;11181;51.002;4.356;2022-09-09T02:03:36;17.40;99.90
22035;DHT22;11181;51.002;4.356;2022-09-09T02:06:11;17.20;99.90
22035;DHT22;11181;51.002;4.356;2022-09-09T02:08:45;17.20;99.90
22035;DHT22;11181;51.002;4.356;2022-09-09T02:11:14;17.20;99.90
22035;DHT22;11181;51.002;4.356;2022-09-09T02:13:44;17.10;99.90
22035;DHT22;11181;51.002;4.356;2022-09-09T02:16:15;17.00;99.90
22035;DHT22;11181;51.002;4.356;2022-09-09T02:18:48;17.00;99.90
22035;DHT22;11181;51.002;4.356;2022-09-09T02:21:17;17.00;99.90
22035;DHT22;11181;51.002;4.356;2022-09-09T02:23:47;17.00;99.90
22035;DHT22;11181;51.002;4.356;2022-09-09T02:26:15;16.90;99.90
22035;DHT22;11181;51.002;4.356;2022-09-09T02:28:49;16.90;99.90
22035;DHT22;11181;51.002;4.356;2022-09-09T02:31:20;17.00;99.90
22035;DHT22;11181;51.002;4.356;2022-09-09T02:33:52;17.10;99.90
22035;DHT22;11181;51.002;4.356;2022-09-09T02:36:22;17.00;99.90
22035;DHT22;11181;51.002;4.356;2022-09-09T02:38:50;17.10;99.90
22035;DHT22;11181;51.002;4.356;2022-09-09T02:41:21;17.20;99.90
22035;DHT22;11181;51.002;4.356;2022-09-09T02:43:51;17.20;99.90
22035;DHT22;11181;51.002;4.356;2022-09-09T02:46:34;17.20;99.90
22035;DHT22;11181;51.002;4.356;2022-09-09T02:49:06;17.20;99.90
22035;DHT22;11181;51.002;4.356;2022-09-09T02:51:40;17.10;99.90
22035;DHT22;11181;51.002;4.356;2022-09-09T02:54:16;17.00;99.90
22035;DHT22;11181;51.002;4.356;2022-09-09T02:56:50;17.00;99.90
22035;DHT22;11181;51.002;4.356;2022-09-09T02:59:21;17.20;99.90
22035;DHT22;11181;51.002;4.356;2022-09-09T03:01:49;17.20;99.90
22035;DHT22;11181;51.002;4.356;2022-09-09T03:04:16;17.00;99.90
22035;DHT22;11181;51.002;4.356;2022-09-09T03:06:43;17.00;99.90
22035;DHT22;11181;51.002;4.356;2022-09-09T03:09:10;16.80;99.90
22035;DHT22;11181;51.002;4.356;2022-09-09T03:11:37;16.80;99.90
22035;DHT22;11181;51.002;4.356;2022-09-09T03:14:05;16.80;99.90
22035;DHT22;11181;51.002;4.356;2022-09-09T03:16:33;16.70;99.90
22035;DHT22;11181;51.002;4.356;2022-09-09T03:19:00;16.80;99.90
22035;DHT22;11181;51.002;4.356;2022-09-09T03:21:27;16.70;99.90
22035;DHT22;11181;51.002;4.356;2022-09-09T03:23:54;16.60;99.90
22035;DHT22;11181;51.002;4.356;2022-09-09T03:26:21;16.60;99.90
22035;DHT22;11181;51.002;4.356;2022-09-09T03:28:48;16.60;99.90
22035;DHT22;11181;51.002;4.356;2022-09-09T03:31:15;16.60;99.90
22035;DHT22;11181;51.002;4.356;2022-09-09T03:33:43;16.60;99.90
22035;DHT22;11181;51.002;4.356;2022-09-09T03:36:10;16.60;99.90
22035;DHT22;11181;51.002;4.356;2022-09-09T03:38:37;16.50;99.90
22035;DHT22;11181;51.002;4.356;2022-09-09T03:41:04;16.50;99.90
22035;DHT22;11181;51.002;4.356;2022-09-09T03:43:33;16.60;99.90
22035;DHT22;11181;51.002;4.356;2022-09-09T03:46:01;16.50;99.90
22035;DHT22;11181;51.002;4.356;2022-09-09T03:48:28;16.50;99.90
22035;DHT22;11181;51.002;4.356;2022-09-09T03:50:57;16.60;99.90
22035;DHT22;11181;51.002;4.356;2022-09-09T03:53:27;16.50;99.90
22035;DHT22;11181;51.002;4.356;2022-09-09T03:55:55;16.50;99.90
22035;DHT22;11181;51.002;4.356;2022-09-09T03:58:24;16.50;99.90
22035;DHT22;11181;51.002;4.356;2022-09-09T04:00:56;16.40;99.90
22035;DHT22;11181;51.002;4.356;2022-09-09T04:03:24;16.50;99.90
22035;DHT22;11181;51.002;4.356;2022-09-09T04:05:52;16.40;99.90
22035;DHT22;11181;51.002;4.356;2022-09-09T04:08:20;16.50;99.90
22035;DHT22;11181;51.002;4.356;2022-09-09T04:10:48;16.60;99.90
22035;DHT22;11181;51.002;4.356;2022-09-09T04:13:16;16.60;99.90
22035;DHT22;11181;51.002;4.356;2022-09-09T04:15:44;16.70;99.90
22035;DHT22;11181;51.002;4.356;2022-09-09T04:18:11;16.70;99.90
22035;DHT22;11181;51.002;4.356;2022-09-09T04:20:38;16.70;99.90
22035;DHT22;11181;51.002;4.356;2022-09-09T04:23:05;16.70;99.90
22035;DHT22;11181;51.002;4.356;2022-09-09T04:25:33;16.70;99.90
22035;DHT22;11181;51.002;4.356;2022-09-09T04:28:00;16.70;99.90
22035;DHT22;11181;51.002;4.356;2022-09-09T04:30:28;16.70;99.90
22035;DHT22;11181;51.002;4.356;2022-09-09T04:32:55;16.60;99.90
22035;DHT22;11181;51.002;4.356;2022-09-09T04:35:23;16.50;99.90
22035;DHT22;11181;51.002;4.356;2022-09-09T04:37:50;16.50;99.90
22035;DHT22;11181;51.002;4.356;2022-09-09T04:40:17;16.60;99.90
22035;DHT22;11181;51.002;4.356;2022-09-09T04:42:45;16.50;99.90
22035;DHT22;11181;51.002;4.356;2022-09-09T04:45:14;16.40;99.90
22035;DHT22;11181;51.002;4.356;2022-09-09T04:47:41;16.40;99.90
22035;DHT22;11181;51.002;4.356;2022-09-09T04:50:09;16.40;99.90
22035;DHT22;11181;51.002;4.356;2022-09-09T04:52:35;16.40;99.90
22035;DHT22;11181;51.002;4.356;2022-09-09T04:55:03;16.40;99.90
22035;DHT22;11181;51.002;4.356;2022-09-09T04:57:30;16.30;99.90
22035;DHT22;11181;51.002;4.356;2022-09-09T05:00:00;16.40;99.90
22035;DHT22;11181;51.002;4.356;2022-09-09T05:02:27;16.40;99.90
22035;DHT22;11181;51.002;4.356;2022-09-09T05:04:54;16.30;99.90
22035;DHT22;11181;51.002;4.356;2022-09-09T05:07:21;16.30;99.90
22035;DHT22;11181;51.002;4.356;2022-09-09T05:09:48;16.30;99.90
22035;DHT22;11181;51.002;4.356;2022-09-09T05:12:15;16.40;99.90
22035;DHT22;11181;51.002;4.356;2022-09-09T05:14:43;16.40;99.90
22035;DHT22;11181;51.002;4.356;2022-09-09T05:17:11;16.40;99.90
22035;DHT22;11181;51.002;4.356;2022-09-09T05:19:38;16.40;99.90
22035;DHT22;11181;51.002;4.356;2022-09-09T05:22:05;16.40;99.90
22035;DHT22;11181;51.002;4.356;2022-09-09T05:24:32;16.50;99.90
22035;DHT22;11181;51.002;4.356;2022-09-09T05:26:59;16.50;99.90
22035;DHT22;11181;51.002;4.356;2022-09-09T05:29:28;16.40;99.90
22035;DHT22;11181;51.002;4.356;2022-09-09T05:31:55;16.50;99.90
22035;DHT22;11181;51.002;4.356;2022-09-09T05:34:23;16.50;99.90
22035;DHT22;11181;51.002;4.356;2022-09-09T05:36:50;16.40;99.90
22035;DHT22;11181;51.002;4.356;2022-09-09T05:39:17;16.50;99.90
22035;DHT22;11181;51.002;4.356;2022-09-09T05:41:44;16.40;99.90
22035;DHT22;11181;51.002;4.356;2022-09-09T05:44:11;16.50;99.90
22035;DHT22;11181;51.002;4.356;2022-09-09T05:46:39;16.60;99.90
22035;DHT22;11181;51.002;4.356;2022-09-09T05:49:06;16.60;99.90
22035;DHT22;11181;51.002;4.356;2022-09-09T05:51:35;16.60;99.90
22035;DHT22;11181;51.002;4.356;2022-09-09T05:54:03;16.60;99.90
22035;DHT22;11181;51.002;4.356;2022-09-09T05:56:30;16.60;99.90
22035;DHT22;11181;51.002;4.356;2022-09-09T05:58:58;16.50;99.90
22035;DHT22;11181;51.002;4.356;2022-09-09T06:01:28;16.50;99.90
22035;DHT22;11181;51.002;4.356;2022-09-09T06:03:56;16.50;99.90
22035;DHT22;11181;51.002;4.356;2022-09-09T06:06:24;16.40;99.90
22035;DHT22;11181;51.002;4.356;2022-09-09T06:08:55;16.50;99.90
22035;DHT22;11181;51.002;4.356;2022-09-09T06:11:25;16.40;99.90
22035;DHT22;11181;51.002;4.356;2022-09-09T06:13:52;16.50;99.90
22035;DHT22;11181;51.002;4.356;2022-09-09T06:16:21;16.60;99.90
22035;DHT22;11181;51.002;4.356;2022-09-09T06:18:49;16.60;99.90
22035;DHT22;11181;51.002;4.356;2022-09-09T06:21:18;16.60;99.90
22035;DHT22;11181;51.002;4.356;2022-09-09T06:23:46;16.60;99.90
22035;DHT22;11181;51.002;4.356;2022-09-09T06:26:16;16.70;99.90
22035;DHT22;11181;51.002;4.356;2022-09-09T06:28:45;16.80;99.90
22035;DHT22;11181;51.002;4.356;2022-09-09T06:31:15;16.80;99.90
22035;DHT22;11181;51.002;4.356;2022-09-09T06:33:43;16.80;99.90
22035;DHT22;11181;51.002;4.356;2022-09-09T06:36:12;16.80;99.90
22035;DHT22;11181;51.002;4.356;2022-09-09T06:38:40;16.80;99.90
22035;DHT22;11181;51.002;4.356;2022-09-09T06:41:08;16.90;99.90
22035;DHT22;11181;51.002;4.356;2022-09-09T06:43:36;16.90;99.90
22035;DHT22;11181;51.002;4.356;2022-09-09T06:46:05;16.90;99.90
22035;DHT22;11181;51.002;4.356;2022-09-09T06:48:33;16.90;99.90
22035;DHT22;11181;51.002;4.356;2022-09-09T06:51:03;16.90;99.90
22035;DHT22;11181;51.002;4.356;2022-09-09T06:53:31;17.00;99.90
22035;DHT22;11181;51.002;4.356;2022-09-09T06:55:59;17.00;99.90
22035;DHT22;11181;51.002;4.356;2022-09-09T06:58:26;17.10;99.90
22035;DHT22;11181;51.002;4.356;2022-09-09T07:01:02;17.10;99.90
22035;DHT22;11181;51.002;4.356;2022-09-09T07:03:29;17.30;99.90
22035;DHT22;11181;51.002;4.356;2022-09-09T07:05:56;17.40;99.90
22035;DHT22;11181;51.002;4.356;2022-09-09T07:08:23;17.50;99.90
22035;DHT22;11181;51.002;4.356;2022-09-09T07:10:52;17.50;99.90
22035;DHT22;11181;51.002;4.356;2022-09-09T07:13:20;17.60;99.90
22035;DHT22;11181;51.002;4.356;2022-09-09T07:15:50;17.60;99.90
22035;DHT22;11181;51.002;4.356;2022-09-09T07:18:18;17.50;99.90
22035;DHT22;11181;51.002;4.356;2022-09-09T07:20:52;17.50;99.90
22035;DHT22;11181;51.002;4.356;2022-09-09T07:23:19;17.40;99.90
22035;DHT22;11181;51.002;4.356;2022-09-09T07:25:46;17.50;99.90
22035;DHT22;11181;51.002;4.356;2022-09-09T07:28:13;17.50;99.90
22035;DHT22;11181;51.002;4.356;2022-09-09T07:30:40;17.60;99.90
22035;DHT22;11181;51.002;4.356;2022-09-09T07:33:08;17.60;99.90
22035;DHT22;11181;51.002;4.356;2022-09-09T07:35:37;17.50;99.90
22035;DHT22;11181;51.002;4.356;2022-09-09T07:38:04;17.50;99.90
22035;DHT22;11181;51.002;4.356;2022-09-09T07:40:32;17.60;99.90
22035;DHT22;11181;51.002;4.356;2022-09-09T07:42:59;17.70;99.90
22035;DHT22;11181;51.002;4.356;2022-09-09T07:45:26;17.80;99.90
22035;DHT22;11181;51.002;4.356;2022-09-09T07:47:54;17.70;99.90
22035;DHT22;11181;51.002;4.356;2022-09-09T07:50:22;17.70;99.90
22035;DHT22;11181;51.002;4.356;2022-09-09T07:52:51;17.70;99.90
22035;DHT22;11181;51.002;4.356;2022-09-09T07:55:19;17.90;99.90
22035;DHT22;11181;51.002;4.356;2022-09-09T07:57:46;17.90;99.90
22035;DHT22;11181;51.002;4.356;2022-09-09T08:00:14;17.80;99.90
22035;DHT22;11181;51.002;4.356;2022-09-09T08:02:41;17.70;99.90
22035;DHT22;11181;51.002;4.356;2022-09-09T08:05:08;17.70;99.90
22035;DHT22;11181;51.002;4.356;2022-09-09T08:07:35;17.80;99.90
22035;DHT22;11181;51.002;4.356;2022-09-09T08:10:04;17.80;99.90
22035;DHT22;11181;51.002;4.356;2022-09-09T08:12:31;17.80;99.90
22035;DHT22;11181;51.002;4.356;2022-09-09T08:14:58;18.00;99.90
22035;DHT22;11181;51.002;4.356;2022-09-09T08:17:25;17.90;99.90
22035;DHT22;11181;51.002;4.356;2022-09-09T08:19:52;17.80;99.90
22035;DHT22;11181;51.002;4.356;2022-09-09T08:22:19;17.80;99.90
22035;DHT22;11181;51.002;4.356;2022-09-09T08:24:47;17.80;99.90
22035;DHT22;11181;51.002;4.356;2022-09-09T08:27:15;17.80;99.90
22035;DHT22;11181;51.002;4.356;2022-09-09T08:29:42;17.90;99.90
22035;DHT22;11181;51.002;4.356;2022-09-09T08:32:10;18.00;99.90
22035;DHT22;11181;51.002;4.356;2022-09-09T08:34:37;18.00;99.90
22035;DHT22;11181;51.002;4.356;2022-09-09T08:37:04;18.10;99.90
22035;DHT22;11181;51.002;4.356;2022-09-09T08:39:31;18.10;99.90
22035;DHT22;11181;51.002;4.356;2022-09-09T08:42:18;18.30;99.90
22035;DHT22;11181;51.002;4.356;2022-09-09T08:45:12;18.40;99.90
22035;DHT22;11181;51.002;4.356;2022-09-09T08:47:50;18.30;99.90
22035;DHT22;11181;51.002;4.356;2022-09-09T08:50:21;18.10;99.90
22035;DHT22;11181;51.002;4.356;2022-09-09T08:52:54;18.30;99.90
22035;DHT22;11181;51.002;4.356;2022-09-09T08:55:35;18.30;99.90
22035;DHT22;11181;51.002;4.356;2022-09-09T08:58:12;18.10;99.90
22035;DHT22;11181;51.002;4.356;2022-09-09T09:00:50;18.10;99.90
22035;DHT22;11181;51.002;4.356;2022-09-09T09:03:24;18.10;99.90
22035;DHT22;11181;51.002;4.356;2022-09-09T09:06:00;18.10;99.90
22035;DHT22;11181;51.002;4.356;2022-09-09T09:08:33;18.00;99.90
22035;DHT22;11181;51.002;4.356;2022-09-09T09:11:04;18.00;99.90
22035;DHT22;11181;51.002;4.356;2022-09-09T09:13:37;17.80;99.90
22035;DHT22;11181;51.002;4.356;2022-09-09T09:16:13;17.70;99.90
22035;DHT22;11181;51.002;4.356;2022-09-09T09:18:42;17.70;99.90
22035;DHT22;11181;51.002;4.356;2022-09-09T09:21:12;17.80;99.90
22035;DHT22;11181;51.002;4.356;2022-09-09T09:23:46;17.90;99.90
22035;DHT22;11181;51.002;4.356;2022-09-09T09:26:16;17.90;99.90
22035;DHT22;11181;51.002;4.356;2022-09-09T09:28:46;17.80;99.90
22035;DHT22;11181;51.002;4.356;2022-09-09T09:31:13;17.80;99.90
22035;DHT22;11181;51.002;4.356;2022-09-09T09:33:47;17.80;99.90
22035;DHT22;11181;51.002;4.356;2022-09-09T09:36:15;17.70;99.90
22035;DHT22;11181;51.002;4.356;2022-09-09T09:38:53;17.80;99.90
22035;DHT22;11181;51.002;4.356;2022-09-09T09:41:34;17.90;99.90
22035;DHT22;11181;51.002;4.356;2022-09-09T09:44:04;17.90;99.90
22035;DHT22;11181;51.002;4.356;2022-09-09T09:46:33;18.10;99.90
22035;DHT22;11181;51.002;4.356;2022-09-09T09:49:01;18.20;99.90
22035;DHT22;11181;51.002;4.356;2022-09-09T09:51:30;18.10;99.90
22035;DHT22;11181;51.002;4.356;2022-09-09T09:54:09;18.20;99.90
22035;DHT22;11181;51.002;4.356;2022-09-09T09:56:41;18.20;99.90
22035;DHT22;11181;51.002;4.356;2022-09-09T09:59:22;18.10;99.90
22035;DHT22;11181;51.002;4.356;2022-09-09T10:01:49;18.10;99.90
22035;DHT22;11181;51.002;4.356;2022-09-09T10:04:18;18.20;99.90
22035;DHT22;11181;51.002;4.356;2022-09-09T10:06:46;18.30;99.90
22035;DHT22;11181;51.002;4.356;2022-09-09T10:09:22;18.50;99.90
22035;DHT22;11181;51.002;4.356;2022-09-09T10:11:55;18.40;99.90
22035;DHT22;11181;51.002;4.356;2022-09-09T10:14:29;18.40;99.90
22035;DHT22;11181;51.002;4.356;2022-09-09T10:17:12;18.40;99.90
22035;DHT22;11181;51.002;4.356;2022-09-09T10:19:49;18.40;99.90
22035;DHT22;11181;51.002;4.356;2022-09-09T10:22:26;18.30;99.90
22035;DHT22;11181;51.002;4.356;2022-09-09T10:25:12;18.30;99.90
22035;DHT22;11181;51.002;4.356;2022-09-09T10:27:52;18.40;99.90
22035;DHT22;11181;51.002;4.356;2022-09-09T10:30:29;18.50;99.90
22035;DHT22;11181;51.002;4.356;2022-09-09T10:33:07;18.50;99.90
22035;DHT22;11181;51.002;4.356;2022-09-09T10:35:42;18.70;99.90
22035;DHT22;11181;51.002;4.356;2022-09-09T10:38:16;18.70;99.90
22035;DHT22;11181;51.002;4.356;2022-09-09T10:41:11;18.80;99.90
22035;DHT22;11181;51.002;4.356;2022-09-09T10:43:50;18.90;99.90
22035;DHT22;11181;51.002;4.356;2022-09-09T10:46:29;19.00;99.90
22035;DHT22;11181;51.002;4.356;2022-09-09T10:49:10;19.00;99.90
22035;DHT22;11181;51.002;4.356;2022-09-09T10:51:47;19.00;99.90
22035;DHT22;11181;51.002;4.356;2022-09-09T10:54:28;19.00;99.90
22035;DHT22;11181;51.002;4.356;2022-09-09T10:57:01;19.00;99.90
22035;DHT22;11181;51.002;4.356;2022-09-09T10:59:33;19.00;99.90
22035;DHT22;11181;51.002;4.356;2022-09-09T11:02:13;19.00;99.90
22035;DHT22;11181;51.002;4.356;2022-09-09T11:04:49;19.10;99.90
22035;DHT22;11181;51.002;4.356;2022-09-09T11:07:25;19.00;99.90
22035;DHT22;11181;51.002;4.356;2022-09-09T11:09:58;19.00;99.90
22035;DHT22;11181;51.002;4.356;2022-09-09T11:12:27;19.00;99.90
22035;DHT22;11181;51.002;4.356;2022-09-09T11:14:59;19.00;99.90
22035;DHT22;11181;51.002;4.356;2022-09-09T11:17:38;19.00;99.90
22035;DHT22;11181;51.002;4.356;2022-09-09T11:20:12;19.10;99.90
22035;DHT22;11181;51.002;4.356;2022-09-09T11:22:44;19.20;99.90
22035;DHT22;11181;51.002;4.356;2022-09-09T11:25:16;19.30;99.90
22035;DHT22;11181;51.002;4.356;2022-09-09T11:27:55;19.30;99.90
22035;DHT22;11181;51.002;4.356;2022-09-09T11:30:32;19.40;99.90
22035;DHT22;11181;51.002;4.356;2022-09-09T11:38:56;19.80;99.90
22035;DHT22;11181;51.002;4.356;2022-09-09T11:41:33;19.90;99.90
22035;DHT22;11181;51.002;4.356;2022-09-09T11:44:10;20.00;99.90
22035;DHT22;11181;51.002;4.356;2022-09-09T11:46:38;20.00;99.90
22035;DHT22;11181;51.002;4.356;2022-09-09T11:49:26;19.80;99.90
22035;DHT22;11181;51.002;4.356;2022-09-09T11:51:53;19.60;99.90
22035;DHT22;11181;51.002;4.356;2022-09-09T11:54:30;19.60;99.90
22035;DHT22;11181;51.002;4.356;2022-09-09T11:56:58;19.70;99.90
22035;DHT22;11181;51.002;4.356;2022-09-09T11:59:26;19.70;99.90
22035;DHT22;11181;51.002;4.356;2022-09-09T12:01:56;20.00;99.90
22035;DHT22;11181;51.002;4.356;2022-09-09T12:04:35;20.00;99.90
22035;DHT22;11181;51.002;4.356;2022-09-09T12:07:19;20.10;99.90
22035;DHT22;11181;51.002;4.356;2022-09-09T12:09:50;20.20;99.90
22035;DHT22;11181;51.002;4.356;2022-09-09T12:12:24;20.20;99.90
22035;DHT22;11181;51.002;4.356;2022-09-09T12:15:00;20.20;99.90
22035;DHT22;11181;51.002;4.356;2022-09-09T12:17:29;20.30;99.90
22035;DHT22;11181;51.002;4.356;2022-09-09T12:20:12;20.40;99.90
22035;DHT22;11181;51.002;4.356;2022-09-09T12:23:04;20.60;99.90
22035;DHT22;11181;51.002;4.356;2022-09-09T12:25:41;20.70;99.90
22035;DHT22;11181;51.002;4.356;2022-09-09T12:28:17;20.80;99.90
22035;DHT22;11181;51.002;4.356;2022-09-09T12:30:49;20.90;99.90
22035;DHT22;11181;51.002;4.356;2022-09-09T12:33:19;20.90;99.90
22035;DHT22;11181;51.002;4.356;2022-09-09T12:35:53;21.10;99.90
22035;DHT22;11181;51.002;4.356;2022-09-09T12:38:29;21.00;99.90
22035;DHT22;11181;51.002;4.356;2022-09-09T12:40:58;21.20;99.90
22035;DHT22;11181;51.002;4.356;2022-09-09T12:43:27;21.20;99.90
22035;DHT22;11181;51.002;4.356;2022-09-09T12:45:57;21.10;99.90
22035;DHT22;11181;51.002;4.356;2022-09-09T12:48:31;21.20;99.90
22035;DHT22;11181;51.002;4.356;2022-09-09T12:51:00;21.30;99.90
22035;DHT22;11181;51.002;4.356;2022-09-09T12:53:30;21.20;99.90
22035;DHT22;11181;51.002;4.356;2022-09-09T12:56:01;21.00;99.90
22035;DHT22;11181;51.002;4.356;2022-09-09T12:58:31;20.90;99.90
22035;DHT22;11181;51.002;4.356;2022-09-09T13:01:00;20.90;99.90
22035;DHT22;11181;51.002;4.356;2022-09-09T13:03:30;20.90;99.90
22035;DHT22;11181;51.002;4.356;2022-09-09T13:06:10;21.00;99.90
22035;DHT22;11181;51.002;4.356;2022-09-09T13:08:38;21.30;99.90
22035;DHT22;11181;51.002;4.356;2022-09-09T13:11:10;21.40;99.90
22035;DHT22;11181;51.002;4.356;2022-09-09T13:13:41;21.50;99.90
22035;DHT22;11181;51.002;4.356;2022-09-09T13:16:19;21.50;99.90
22035;DHT22;11181;51.002;4.356;2022-09-09T13:18:47;21.30;99.90
22035;DHT22;11181;51.002;4.356;2022-09-09T13:21:16;21.20;99.90
22035;DHT22;11181;51.002;4.356;2022-09-09T13:23:48;21.10;99.90
22035;DHT22;11181;51.002;4.356;2022-09-09T13:26:23;21.20;99.90
22035;DHT22;11181;51.002;4.356;2022-09-09T13:28:51;21.20;99.90
22035;DHT22;11181;51.002;4.356;2022-09-09T13:31:21;21.20;99.90
22035;DHT22;11181;51.002;4.356;2022-09-09T13:33:48;21.20;99.90
22035;DHT22;11181;51.002;4.356;2022-09-09T13:36:28;21.30;99.90
22035;DHT22;11181;51.002;4.356;2022-09-09T13:38:57;21.40;99.90
22035;DHT22;11181;51.002;4.356;2022-09-09T13:41:28;21.50;99.90
22035;DHT22;11181;51.002;4.356;2022-09-09T13:43:55;21.40;99.90
22035;DHT22;11181;51.002;4.356;2022-09-09T13:46:27;21.40;99.90
22035;DHT22;11181;51.002;4.356;2022-09-09T13:48:56;21.50;99.90
22035;DHT22;11181;51.002;4.356;2022-09-09T13:51:32;21.60;99.90
22035;DHT22;11181;51.002;4.356;2022-09-09T13:54:01;21.80;99.90
22035;DHT22;11181;51.002;4.356;2022-09-09T13:56:28;21.90;99.90
22035;DHT22;11181;51.002;4.356;2022-09-09T13:58:55;22.10;99.90
22035;DHT22;11181;51.002;4.356;2022-09-09T14:01:23;22.00;99.90
22035;DHT22;11181;51.002;4.356;2022-09-09T14:03:50;21.80;99.90
22035;DHT22;11181;51.002;4.356;2022-09-09T14:06:18;21.70;99.90
22035;DHT22;11181;51.002;4.356;2022-09-09T14:08:49;21.70;99.90
22035;DHT22;11181;51.002;4.356;2022-09-09T14:11:16;21.70;99.90
22035;DHT22;11181;51.002;4.356;2022-09-09T14:13:43;21.60;99.90
22035;DHT22;11181;51.002;4.356;2022-09-09T14:16:10;21.50;99.90
22035;DHT22;11181;51.002;4.356;2022-09-09T14:18:37;21.50;99.90
22035;DHT22;11181;51.002;4.356;2022-09-09T14:21:04;21.40;99.90
22035;DHT22;11181;51.002;4.356;2022-09-09T14:23:31;21.40;99.90
22035;DHT22;11181;51.002;4.356;2022-09-09T14:25:59;21.50;99.90
22035;DHT22;11181;51.002;4.356;2022-09-09T14:28:26;21.60;99.90
22035;DHT22;11181;51.002;4.356;2022-09-09T14:30:54;21.70;99.90
22035;DHT22;11181;51.002;4.356;2022-09-09T14:33:21;21.70;99.90
22035;DHT22;11181;51.002;4.356;2022-09-09T14:35:56;21.70;99.90
22035;DHT22;11181;51.002;4.356;2022-09-09T14:38:22;21.50;99.90
22035;DHT22;11181;51.002;4.356;2022-09-09T14:40:49;21.60;99.90
22035;DHT22;11181;51.002;4.356;2022-09-09T14:43:18;21.70;99.90
22035;DHT22;11181;51.002;4.356;2022-09-09T14:45:45;21.80;99.90
22035;DHT22;11181;51.002;4.356;2022-09-09T14:48:13;22.00;99.90
22035;DHT22;11181;51.002;4.356;2022-09-09T14:50:41;22.20;99.90
22035;DHT22;11181;51.002;4.356;2022-09-09T14:53:08;22.30;99.90
22035;DHT22;11181;51.002;4.356;2022-09-09T14:55:36;22.40;99.90
22035;DHT22;11181;51.002;4.356;2022-09-09T14:58:03;22.40;99.90
22035;DHT22;11181;51.002;4.356;2022-09-09T15:00:32;22.30;99.90
22035;DHT22;11181;51.002;4.356;2022-09-09T15:02:59;22.10;99.90
22035;DHT22;11181;51.002;4.356;2022-09-09T15:05:26;22.00;99.90
22035;DHT22;11181;51.002;4.356;2022-09-09T15:07:53;22.00;99.90
22035;DHT22;11181;51.002;4.356;2022-09-09T15:10:20;22.10;99.90
22035;DHT22;11181;51.002;4.356;2022-09-09T15:12:47;22.20;99.90
22035;DHT22;11181;51.002;4.356;2022-09-09T15:15:15;22.20;99.90
22035;DHT22;11181;51.002;4.356;2022-09-09T15:17:44;22.10;99.90
22035;DHT22;11181;51.002;4.356;2022-09-09T15:20:10;22.00;99.90
22035;DHT22;11181;51.002;4.356;2022-09-09T15:22:37;21.80;99.90
22035;DHT22;11181;51.002;4.356;2022-09-09T15:25:06;21.80;99.90
22035;DHT22;11181;51.002;4.356;2022-09-09T15:27:33;21.70;99.90
22035;DHT22;11181;51.002;4.356;2022-09-09T15:30:00;21.70;99.90
22035;DHT22;11181;51.002;4.356;2022-09-09T15:32:28;21.60;99.90
22035;DHT22;11181;51.002;4.356;2022-09-09T15:34:57;21.30;99.90
22035;DHT22;11181;51.002;4.356;2022-09-09T15:37:23;21.10;99.90
22035;DHT22;11181;51.002;4.356;2022-09-09T15:39:50;20.80;99.90
22035;DHT22;11181;51.002;4.356;2022-09-09T15:42:17;20.70;99.90
22035;DHT22;11181;51.002;4.356;2022-09-09T15:44:44;20.70;99.90
22035;DHT22;11181;51.002;4.356;2022-09-09T15:47:12;20.70;99.90
22035;DHT22;11181;51.002;4.356;2022-09-09T15:49:40;20.70;99.90
22035;DHT22;11181;51.002;4.356;2022-09-09T15:52:10;20.60;99.90
22035;DHT22;11181;51.002;4.356;2022-09-09T15:54:37;20.60;99.90
22035;DHT22;11181;51.002;4.356;2022-09-09T15:57:07;20.60;99.90
22035;DHT22;11181;51.002;4.356;2022-09-09T15:59:34;20.60;99.90